Time;durP1;ratioP1;P1;durP2;ratioP2;P2;SDS_P1;SDS_P2;PMS_P1;PMS_P2;Temp;Humidity;BMP_temperature;BMP_pressure;BME280_temperature;BME280_humidity;BME280_pressure;Samples;Min_cycle;Max_cycle;Signal;HPM_P1;HPM_P2
2023/04/20 04:02:12;;;;;;;3.10;1.97;;;6.80;72.80;;;;;;5360493;23;20986;-74
2023/04/20 04:04:39;;;;;;;2.67;2.10;;;6.80;72.60;;;;;;4975787;28;20447;-74
2023/04/20 04:07:06;;;;;;;2.90;2.30;;;6.80;72.60;;;;;;4975570;28;20533;-74
2023/04/20 04:09:32;;;;;;;2.77;1.83;;;6.80;72.90;;;;;;4975553;28;20541;-73
2023/04/20 04:12:00;;;;;;;2.83;2.20;;;6.80;72.70;;;;;;4975341;28;20806;-76
2023/04/20 04:14:26;;;;;;;3.17;2.43;;;6.80;72.60;;;;;;4976032;28;20547;-73
2023/04/20 04:16:53;;;;;;;2.73;1.80;;;6.80;72.50;;;;;;4975378;28;20446;-74
2023/04/20 04:19:21;;;;;;;2.70;2.27;;;6.80;72.60;;;;;;4975298;28;20450;-73
2023/04/20 04:21:48;;;;;;;2.60;2.10;;;6.80;72.70;;;;;;4975335;28;20521;-74
2023/04/20 04:24:15;;;;;;;3.00;2.33;;;6.80;72.60;;;;;;4975337;28;20454;-74
2023/04/20 04:26:42;;;;;;;3.37;2.40;;;6.80;72.80;;;;;;4975221;28;20532;-73
2023/04/20 04:29:09;;;;;;;2.70;2.10;;;6.70;72.80;;;;;;4975232;28;20473;-74
2023/04/20 04:31:36;;;;;;;2.80;2.27;;;6.80;72.70;;;;;;4974992;28;20462;-74
2023/04/20 04:34:02;;;;;;;2.93;2.20;;;6.80;72.70;;;;;;4975059;28;20450;-74
2023/04/20 04:36:31;;;;;;;2.60;2.40;;;6.80;72.70;;;;;;4974784;28;20947;-74
2023/04/20 04:38:58;;;;;;;3.30;2.50;;;6.80;72.70;;;;;;4975092;28;20455;-74
2023/04/20 04:41:24;;;;;;;4.90;2.00;;;6.80;72.80;;;;;;4974801;28;20556;-74
2023/04/20 04:43:51;;;;;;;2.93;2.57;;;6.90;72.60;;;;;;4974814;28;20450;-74
2023/04/20 04:46:18;;;;;;;2.67;2.37;;;6.90;72.60;;;;;;4974824;28;20958;-74
2023/04/20 04:48:45;;;;;;;2.93;2.20;;;6.90;72.80;;;;;;4974503;28;20962;-74
2023/04/20 04:51:12;;;;;;;3.07;2.50;;;6.80;72.90;;;;;;4974836;28;20478;-74
2023/04/20 04:53:43;;;;;;;3.10;2.23;;;6.90;72.90;;;;;;4975132;28;20541;-74
2023/04/20 04:56:10;;;;;;;3.20;2.80;;;7.00;72.80;;;;;;4974807;28;20439;-74
2023/04/20 04:58:37;;;;;;;3.20;2.37;;;7.10;72.30;;;;;;4974713;28;20496;-74
2023/04/20 05:01:03;;;;;;;2.67;2.03;;;7.20;72.30;;;;;;4974662;28;20489;-75
2023/04/20 05:03:30;;;;;;;3.77;2.83;;;7.30;71.90;;;;;;4974729;28;20482;-74
2023/04/20 05:05:57;;;;;;;3.07;2.37;;;7.40;71.90;;;;;;4974793;28;20500;-74
2023/04/20 05:08:24;;;;;;;4.43;3.33;;;7.50;72.00;;;;;;4975019;28;20537;-74
2023/04/20 05:10:52;;;;;;;2.90;2.40;;;7.50;72.10;;;;;;4975503;28;20474;-75
2023/04/20 05:13:18;;;;;;;3.40;2.87;;;7.60;72.00;;;;;;4976475;28;20462;-74
2023/04/20 05:15:45;;;;;;;3.03;2.37;;;7.80;71.70;;;;;;4976671;28;20461;-74
2023/04/20 05:18:12;;;;;;;2.90;2.07;;;7.90;71.60;;;;;;4975839;28;20505;-73
2023/04/20 05:20:39;;;;;;;2.83;2.37;;;8.00;71.10;;;;;;4976193;28;20497;-73
2023/04/20 05:23:05;;;;;;;3.10;2.50;;;8.10;70.90;;;;;;4976146;28;20737;-74
2023/04/20 05:25:32;;;;;;;2.60;2.27;;;8.30;70.80;;;;;;4975664;28;20454;-74
2023/04/20 05:28:00;;;;;;;3.27;2.77;;;8.40;70.30;;;;;;4975749;28;20576;-75
2023/04/20 05:30:27;;;;;;;3.37;2.10;;;8.50;69.80;;;;;;4975958;28;20797;-75
2023/04/20 05:32:53;;;;;;;3.23;2.80;;;8.60;69.50;;;;;;4976373;28;20796;-75
2023/04/20 05:35:21;;;;;;;2.80;2.20;;;8.80;69.50;;;;;;4975341;28;20451;-77
2023/04/20 05:37:48;;;;;;;2.73;2.53;;;8.90;69.40;;;;;;4975923;28;20454;-76
2023/04/20 05:40:15;;;;;;;3.07;1.83;;;8.90;69.10;;;;;;4976293;28;20450;-75
2023/04/20 05:42:44;;;;;;;3.33;2.37;;;9.00;68.60;;;;;;4975442;28;20553;-76
2023/04/20 05:45:12;;;;;;;3.53;2.40;;;9.20;68.90;;;;;;4975213;28;20540;-76
2023/04/20 05:47:39;;;;;;;2.60;2.07;;;9.40;68.80;;;;;;4975351;28;20536;-76
2023/04/20 05:50:07;;;;;;;3.17;2.57;;;9.50;68.20;;;;;;4975129;28;21005;-76
2023/04/20 05:52:33;;;;;;;2.87;2.27;;;9.60;67.70;;;;;;4975580;28;20474;-76
2023/04/20 05:55:00;;;;;;;3.47;2.53;;;9.70;67.60;;;;;;4977564;28;20441;-76
2023/04/20 05:57:27;;;;;;;3.90;2.47;;;9.80;67.30;;;;;;4978535;28;20442;-75
2023/04/20 05:59:54;;;;;;;3.30;2.30;;;10.00;66.70;;;;;;4978549;28;20477;-76
2023/04/20 06:02:22;;;;;;;3.80;2.60;;;10.10;67.10;;;;;;4978193;28;21025;-76
2023/04/20 06:04:49;;;;;;;3.07;2.10;;;10.30;66.30;;;;;;4978463;28;20454;-76
2023/04/20 06:07:16;;;;;;;3.30;2.43;;;10.30;65.80;;;;;;4978557;28;20481;-74
2023/04/20 06:09:43;;;;;;;2.83;2.20;;;10.30;66.20;;;;;;4978265;28;20513;-74
2023/04/20 06:12:10;;;;;;;3.60;2.57;;;10.60;66.00;;;;;;4978500;28;20525;-74
2023/04/20 06:14:36;;;;;;;3.40;2.70;;;10.40;64.40;;;;;;4978698;28;20462;-74
2023/04/20 06:17:03;;;;;;;7.17;2.83;;;10.20;65.90;;;;;;4978587;28;20442;-75
2023/04/20 06:19:31;;;;;;;2.77;2.10;;;10.00;65.60;;;;;;4978709;28;20554;-75
2023/04/20 06:21:58;;;;;;;3.17;2.53;;;9.50;66.70;;;;;;4978358;28;20462;-75
2023/04/20 06:24:26;;;;;;;3.67;2.90;;;9.10;67.90;;;;;;4977889;28;21076;-75
2023/04/20 06:26:53;;;;;;;2.80;2.40;;;8.90;69.00;;;;;;4978199;28;20576;-75
2023/04/20 06:29:20;;;;;;;3.40;3.10;;;8.90;70.00;;;;;;4978328;28;20512;-75
2023/04/20 06:31:46;;;;;;;2.60;2.30;;;8.90;69.40;;;;;;4978068;28;20474;-75
2023/04/20 06:34:15;;;;;;;3.57;2.97;;;8.70;69.80;;;;;;4977839;28;20508;-75
2023/04/20 06:36:43;;;;;;;6.00;3.27;;;8.50;70.90;;;;;;4977762;28;20940;-75
2023/04/20 06:39:10;;;;;;;3.10;2.40;;;8.10;71.10;;;;;;4978256;28;20465;-76
2023/04/20 06:41:37;;;;;;;3.40;2.60;;;7.80;72.50;;;;;;4978114;28;20517;-76
2023/04/20 06:44:04;;;;;;;3.20;2.90;;;7.80;72.90;;;;;;4977783;28;20456;-76
2023/04/20 06:46:31;;;;;;;2.93;2.63;;;7.90;72.60;;;;;;4977865;28;20446;-75
2023/04/20 06:48:58;;;;;;;3.20;2.90;;;7.90;72.60;;;;;;4977160;28;20998;-76
2023/04/20 06:51:25;;;;;;;2.80;2.50;;;7.80;73.00;;;;;;4977374;28;20473;-75
2023/04/20 06:53:53;;;;;;;3.30;2.90;;;8.00;73.10;;;;;;4977695;28;20829;-75
2023/04/20 06:56:20;;;;;;;3.67;2.83;;;8.30;73.90;;;;;;4977638;28;20544;-75
2023/04/20 06:58:47;;;;;;;3.50;3.20;;;8.90;73.50;;;;;;4977687;28;20447;-75
2023/04/20 07:01:14;;;;;;;3.17;2.80;;;9.40;70.90;;;;;;4977080;28;20506;-76
2023/04/20 07:03:40;;;;;;;3.80;2.93;;;9.90;69.40;;;;;;4977673;28;20508;-75
2023/04/20 07:06:09;;;;;;;2.90;2.50;;;10.10;68.00;;;;;;4977232;28;20454;-76
2023/04/20 07:08:37;;;;;;;3.30;2.90;;;10.10;67.90;;;;;;4977271;28;20489;-75
2023/04/20 07:11:05;;;;;;;3.00;2.70;;;10.30;67.90;;;;;;4978305;28;20473;-77
2023/04/20 07:13:31;;;;;;;3.30;3.00;;;10.50;68.00;;;;;;4977744;28;20446;-76
2023/04/20 07:15:58;;;;;;;3.67;2.70;;;10.40;67.10;;;;;;4977598;28;20505;-76
2023/04/20 07:18:25;;;;;;;3.60;2.87;;;10.00;67.50;;;;;;4976908;28;20450;-77
2023/04/20 07:20:52;;;;;;;4.83;3.73;;;9.70;68.30;;;;;;4977224;28;20471;-77
2023/04/20 07:23:19;;;;;;;3.93;3.20;;;9.30;69.20;;;;;;4977285;28;20461;-76
2023/04/20 07:25:45;;;;;;;3.67;3.03;;;8.90;71.00;;;;;;4977104;28;20454;-76
2023/04/20 07:28:14;;;;;;;3.40;3.10;;;8.60;72.30;;;;;;4977235;28;20482;-77
2023/04/20 07:30:40;;;;;;;3.80;3.10;;;8.30;73.20;;;;;;4977158;28;20561;-76
2023/04/20 07:33:08;;;;;;;3.70;3.40;;;8.20;73.80;;;;;;4977043;28;20454;-77
2023/04/20 07:35:34;;;;;;;2.90;2.60;;;8.00;74.80;;;;;;4977293;28;20458;-76
2023/04/20 07:38:01;;;;;;;3.50;3.20;;;8.10;75.00;;;;;;4976963;28;20450;-77
2023/04/20 07:40:28;;;;;;;4.20;3.10;;;8.20;74.90;;;;;;4976753;28;20450;-77
2023/04/20 07:42:54;;;;;;;4.37;3.67;;;8.10;75.10;;;;;;4976730;28;20454;-77
2023/04/20 07:45:23;;;;;;;5.20;4.43;;;8.30;76.30;;;;;;4976995;28;20454;-76
2023/04/20 07:47:50;;;;;;;4.50;4.00;;;8.50;74.80;;;;;;4976753;28;20908;-77
2023/04/20 07:50:17;;;;;;;4.83;3.73;;;8.60;75.30;;;;;;4976858;28;20512;-76
2023/04/20 07:52:44;;;;;;;3.50;3.10;;;8.50;73.40;;;;;;4976457;28;20957;-76
2023/04/20 07:55:12;;;;;;;5.10;3.70;;;8.20;73.70;;;;;;4976767;28;20553;-77
2023/04/20 07:57:40;;;;;;;3.97;3.20;;;7.90;74.90;;;;;;4976331;28;20545;-75
2023/04/20 08:00:08;;;;;;;3.63;3.33;;;7.60;75.30;;;;;;4976491;28;20461;-76
2023/04/20 08:02:36;;;;;;;3.47;3.17;;;7.60;76.10;;;;;;4975942;28;20493;-75
2023/04/20 08:05:03;;;;;;;3.90;3.50;;;7.50;77.00;;;;;;4976408;28;20505;-77
2023/04/20 08:07:30;;;;;;;4.07;3.30;;;7.50;76.80;;;;;;4976252;28;20537;-76
2023/04/20 08:09:57;;;;;;;4.57;3.67;;;7.30;76.90;;;;;;4976158;28;20449;-76
2023/04/20 08:12:24;;;;;;;4.17;3.33;;;7.30;76.90;;;;;;4975863;28;21001;-76
2023/04/20 08:14:50;;;;;;;3.67;3.37;;;7.30;76.80;;;;;;4975949;28;20457;-76
2023/04/20 08:17:17;;;;;;;3.87;3.47;;;7.30;76.90;;;;;;4975624;28;20450;-75
2023/04/20 08:19:45;;;;;;;4.10;3.23;;;7.30;77.10;;;;;;4976712;28;20497;-76
2023/04/20 08:22:12;;;;;;;4.40;4.00;;;7.20;76.60;;;;;;4981497;28;20470;-76
2023/04/20 08:24:38;;;;;;;4.47;4.07;;;7.10;77.70;;;;;;5000268;28;20482;-77
2023/04/20 08:27:05;;;;;;;4.00;3.60;;;7.20;78.20;;;;;;4987205;28;20442;-76
2023/04/20 08:29:32;;;;;;;4.70;3.70;;;7.10;78.20;;;;;;4977405;28;20499;-76
2023/04/20 08:31:58;;;;;;;6.90;3.63;;;7.10;78.00;;;;;;4976647;28;20470;-76
2023/04/20 08:34:25;;;;;;;4.07;3.60;;;7.10;78.10;;;;;;4976150;28;20521;-75
2023/04/20 08:36:54;;;;;;;4.07;3.60;;;7.10;78.20;;;;;;4976083;28;20486;-76
2023/04/20 08:39:22;;;;;;;3.80;3.47;;;7.00;78.10;;;;;;4975710;28;20510;-76
2023/04/20 08:41:52;;;;;;;5.40;3.93;;;6.90;78.60;;;;;;4975389;28;20478;-76
2023/04/20 08:44:19;;;;;;;3.97;3.63;;;6.80;79.10;;;;;;4975459;28;20509;-76
2023/04/20 08:46:48;;;;;;;5.27;3.30;;;6.80;79.30;;;;;;4974785;28;21006;-76
2023/04/20 08:49:16;;;;;;;4.20;3.80;;;6.80;79.50;;;;;;4974902;28;20620;-76
2023/04/20 08:51:43;;;;;;;4.10;3.70;;;6.90;80.00;;;;;;4975140;28;20983;-76
2023/04/20 08:54:12;;;;;;;3.97;3.50;;;7.00;80.20;;;;;;4975334;28;20472;-76
2023/04/20 08:56:41;;;;;;;3.83;3.43;;;7.00;79.90;;;;;;4975382;28;20450;-76
2023/04/20 08:59:09;;;;;;;3.57;3.23;;;7.00;80.20;;;;;;4975455;28;20443;-76
2023/04/20 09:01:36;;;;;;;4.23;3.83;;;6.90;80.20;;;;;;4974740;28;20980;-75
2023/04/20 09:04:15;;;;;;;4.37;3.97;;;6.90;80.40;;;;;;4975166;28;20553;-76
2023/04/20 09:06:43;;;;;;;6.00;3.93;;;6.90;80.90;;;;;;4975244;28;20434;-76
2023/04/20 09:09:12;;;;;;;3.70;3.40;;;6.90;81.60;;;;;;4975034;28;20885;-76
2023/04/20 09:11:39;;;;;;;5.50;4.13;;;7.00;81.20;;;;;;4975200;28;20541;-75
2023/04/20 09:14:08;;;;;;;4.07;3.67;;;7.20;81.30;;;;;;4975165;28;20461;-76
2023/04/20 09:16:36;;;;;;;4.80;4.07;;;7.20;81.80;;;;;;4974926;28;20454;-76
2023/04/20 09:19:03;;;;;;;4.10;3.70;;;7.40;81.40;;;;;;4974994;28;20455;-76
2023/04/20 09:21:30;;;;;;;4.30;3.60;;;7.30;81.70;;;;;;4975089;28;20466;-76
2023/04/20 09:23:59;;;;;;;4.23;3.67;;;7.40;82.40;;;;;;4975209;28;20504;-76
2023/04/20 09:26:27;;;;;;;3.30;3.00;;;7.70;81.50;;;;;;4974715;28;20472;-76
2023/04/20 09:28:53;;;;;;;4.20;3.13;;;7.30;80.90;;;;;;4976492;28;20477;-76
2023/04/20 09:31:21;;;;;;;3.70;3.40;;;7.30;82.00;;;;;;4978361;28;20520;-75
2023/04/20 09:33:59;;;;;;;3.93;3.60;;;7.20;82.30;;;;;;4977968;28;20854;-76
2023/04/20 09:36:36;;;;;;;5.60;3.77;;;7.20;82.30;;;;;;4978307;28;20814;-76
2023/04/20 09:39:05;;;;;;;3.50;3.07;;;7.20;82.10;;;;;;4978324;28;20433;-76
2023/04/20 09:41:35;;;;;;;11.00;3.03;;;7.20;82.30;;;;;;4978133;28;20525;-76
2023/04/20 09:44:02;;;;;;;3.70;3.13;;;7.30;82.10;;;;;;4978177;28;20454;-76
2023/04/20 09:46:45;;;;;;;4.80;3.43;;;7.30;82.00;;;;;;4977927;28;21006;-75
2023/04/20 09:49:13;;;;;;;3.60;3.30;;;7.50;82.10;;;;;;4977724;28;20474;-77
2023/04/20 09:51:43;;;;;;;4.20;3.80;;;7.70;81.90;;;;;;4977915;28;20483;-76
2023/04/20 09:54:10;;;;;;;3.47;3.17;;;7.70;81.60;;;;;;4978043;28;20497;-77
2023/04/20 09:56:39;;;;;;;4.00;3.70;;;7.80;81.50;;;;;;4978215;28;20516;-77
2023/04/20 09:59:06;;;;;;;4.63;4.10;;;7.70;80.90;;;;;;4978289;28;20541;-77
2023/04/20 10:01:35;;;;;;;4.80;4.40;;;7.60;80.80;;;;;;4977889;28;20545;-76
2023/04/20 10:04:03;;;;;;;4.00;3.47;;;7.50;81.40;;;;;;4978021;28;20555;-77
2023/04/20 10:06:31;;;;;;;4.10;3.70;;;7.50;81.70;;;;;;4977885;28;20445;-76
2023/04/20 10:09:00;;;;;;;6.03;4.17;;;7.50;82.00;;;;;;4977484;28;20478;-76
2023/04/20 10:11:29;;;;;;;3.80;3.50;;;7.40;81.80;;;;;;4977308;28;20898;-75
2023/04/20 10:13:57;;;;;;;4.40;3.80;;;7.60;82.10;;;;;;4978001;28;20439;-76
2023/04/20 10:16:25;;;;;;;4.30;3.90;;;7.80;81.40;;;;;;4977290;28;20509;-76
2023/04/20 10:19:00;;;;;;;3.90;3.57;;;7.80;80.80;;;;;;4977523;28;20446;-77
2023/04/20 10:21:28;;;;;;;5.40;4.90;;;7.80;81.50;;;;;;4977420;28;20473;-76
2023/04/20 10:23:55;;;;;;;4.93;4.20;;;7.80;81.10;;;;;;4977579;28;20528;-77
2023/04/20 10:26:22;;;;;;;4.00;3.60;;;8.00;81.50;;;;;;4977107;28;20497;-76
2023/04/20 10:28:49;;;;;;;4.67;4.27;;;7.90;81.80;;;;;;4977031;28;21071;-76
2023/04/20 10:31:19;;;;;;;4.20;3.80;;;7.80;82.00;;;;;;4977264;28;20481;-76
2023/04/20 10:33:53;;;;;;;3.80;3.40;;;7.80;82.40;;;;;;4977423;28;20525;-77
2023/04/20 10:36:25;;;;;;;4.00;3.60;;;8.10;82.20;;;;;;4977218;28;20505;-76
2023/04/20 10:38:52;;;;;;;3.70;3.40;;;7.80;81.30;;;;;;4977136;28;20450;-76
2023/04/20 10:41:19;;;;;;;4.40;4.00;;;7.60;82.50;;;;;;4976648;28;20474;-75
2023/04/20 10:43:46;;;;;;;4.60;4.20;;;7.40;83.40;;;;;;4977131;28;20463;-76
2023/04/20 10:46:14;;;;;;;4.43;4.03;;;7.30;84.40;;;;;;4978043;28;20871;-77
2023/04/20 10:48:51;;;;;;;3.93;3.53;;;7.40;85.30;;;;;;4977490;28;20482;-77
2023/04/20 10:51:18;;;;;;;3.60;3.30;;;7.30;84.80;;;;;;4977252;28;20466;-76
2023/04/20 10:53:45;;;;;;;4.07;3.60;;;7.30;84.50;;;;;;4976925;28;20839;-77
2023/04/20 10:56:12;;;;;;;4.40;4.00;;;7.40;85.50;;;;;;4977463;28;20449;-77
2023/04/20 10:58:39;;;;;;;4.30;3.90;;;7.30;85.60;;;;;;4976903;28;20450;-76
2023/04/20 11:01:06;;;;;;;4.67;4.27;;;7.50;85.50;;;;;;4976578;28;21062;-77
2023/04/20 11:03:34;;;;;;;6.50;5.90;;;7.40;85.00;;;;;;4977917;28;20446;-77
2023/04/20 11:06:02;;;;;;;7.67;6.97;;;7.40;84.90;;;;;;4977581;28;20450;-76
2023/04/20 11:08:39;;;;;;;5.77;5.27;;;7.50;85.10;;;;;;4978149;28;20490;-77
2023/04/20 11:11:17;;;;;;;3.53;3.23;;;7.80;85.40;;;;;;4977320;28;20470;-75
2023/04/20 11:13:43;;;;;;;4.30;3.73;;;7.90;84.70;;;;;;4976582;28;20815;-75
2023/04/20 11:16:12;;;;;;;3.60;3.20;;;8.00;85.30;;;;;;4977053;28;20457;-78
2023/04/20 11:18:51;;;;;;;3.43;3.13;;;8.30;83.70;;;;;;4977720;28;20836;-76
2023/04/20 11:21:20;;;;;;;3.20;2.90;;;8.50;82.60;;;;;;4977977;28;20554;-76
2023/04/20 11:23:46;;;;;;;3.47;3.17;;;8.50;82.70;;;;;;4978468;28;20450;-76
2023/04/20 11:26:13;;;;;;;3.40;3.10;;;8.50;81.90;;;;;;4978736;28;20455;-76
2023/04/20 11:28:51;;;;;;;3.83;3.53;;;8.50;82.50;;;;;;4979615;28;21002;-76
2023/04/20 11:31:19;;;;;;;3.80;3.50;;;8.70;82.60;;;;;;4980327;28;20552;-75
2023/04/20 11:33:46;;;;;;;4.00;3.37;;;8.90;82.50;;;;;;4979611;28;20497;-77
2023/04/20 11:36:20;;;;;;;3.50;3.10;;;9.00;82.30;;;;;;4979728;28;20455;-75
2023/04/20 11:38:47;;;;;;;3.60;3.30;;;9.10;81.70;;;;;;4982141;28;20891;-78
2023/04/20 11:41:13;;;;;;;3.40;2.90;;;9.00;81.50;;;;;;4982180;28;20521;-77
2023/04/20 11:43:42;;;;;;;3.57;3.27;;;9.10;81.80;;;;;;4981068;28;20955;-75
2023/04/20 11:46:14;;;;;;;3.90;3.50;;;9.20;81.50;;;;;;4981270;28;20458;-76
2023/04/20 11:48:41;;;;;;;3.13;2.83;;;9.30;80.70;;;;;;4981161;28;20510;-75
2023/04/20 11:51:07;;;;;;;3.40;3.00;;;9.40;80.60;;;;;;4980222;28;20519;-76
2023/04/20 11:53:36;;;;;;;3.37;3.07;;;9.40;80.50;;;;;;4978301;28;20457;-76
2023/04/20 11:56:03;;;;;;;3.70;3.20;;;9.50;80.30;;;;;;4975659;28;20454;-76
2023/04/20 11:58:30;;;;;;;3.67;3.37;;;9.50;80.20;;;;;;4975982;28;20501;-76
2023/04/20 12:00:57;;;;;;;3.00;2.70;;;9.60;80.40;;;;;;4975477;28;20849;-76
2023/04/20 12:03:24;;;;;;;4.57;4.17;;;9.60;80.50;;;;;;4976001;28;20446;-75
2023/04/20 12:05:50;;;;;;;4.30;3.10;;;9.60;80.40;;;;;;4975679;28;20476;-76
2023/04/20 12:08:17;;;;;;;4.10;3.70;;;9.60;80.50;;;;;;4975779;28;20504;-75
2023/04/20 12:10:46;;;;;;;3.43;3.10;;;9.50;79.90;;;;;;4975436;28;20490;-76
2023/04/20 12:13:13;;;;;;;4.20;3.80;;;9.30;80.10;;;;;;4975483;28;20454;-76
2023/04/20 12:15:40;;;;;;;3.97;3.57;;;9.20;80.40;;;;;;4975669;28;20599;-75
2023/04/20 12:18:07;;;;;;;5.10;4.30;;;9.10;81.20;;;;;;4975479;28;20450;-75
2023/04/20 12:20:34;;;;;;;4.13;3.73;;;8.90;82.00;;;;;;4975774;28;20450;-75
2023/04/20 12:23:01;;;;;;;4.20;3.80;;;8.90;82.10;;;;;;4978139;28;20450;-75
2023/04/20 12:25:28;;;;;;;3.93;3.53;;;8.80;82.50;;;;;;4979721;28;20948;-74
2023/04/20 12:27:56;;;;;;;3.90;3.50;;;8.80;83.60;;;;;;4977920;28;20451;-75
2023/04/20 12:30:23;;;;;;;5.10;3.83;;;8.70;83.80;;;;;;4975140;28;21021;-75
2023/04/20 12:32:49;;;;;;;4.13;3.67;;;8.80;84.20;;;;;;4975265;28;20450;-74
2023/04/20 12:35:16;;;;;;;4.00;3.60;;;9.00;83.90;;;;;;4975139;28;20458;-73
2023/04/20 12:37:43;;;;;;;3.90;3.60;;;9.10;83.20;;;;;;4975202;28;20451;-75
2023/04/20 12:40:10;;;;;;;3.83;3.53;;;9.20;83.10;;;;;;4975076;28;20534;-74
2023/04/20 12:42:37;;;;;;;4.30;3.90;;;9.20;83.30;;;;;;4975003;28;20474;-75
2023/04/20 12:45:06;;;;;;;4.30;3.80;;;9.30;82.90;;;;;;4974838;28;20952;-74
2023/04/20 12:47:32;;;;;;;4.43;4.00;;;9.10;83.30;;;;;;4974976;28;20450;-74
2023/04/20 12:49:59;;;;;;;4.43;4.03;;;8.90;84.00;;;;;;4974914;28;20486;-74
2023/04/20 12:52:26;;;;;;;4.77;4.37;;;8.90;85.10;;;;;;4975013;28;20502;-73
2023/04/20 12:54:53;;;;;;;4.67;4.27;;;8.80;84.60;;;;;;4974941;28;20553;-73
2023/04/20 12:57:20;;;;;;;4.77;4.27;;;8.50;84.80;;;;;;4974928;28;20451;-74
2023/04/20 12:59:48;;;;;;;3.57;3.27;;;8.50;85.40;;;;;;4974659;28;20874;-74
2023/04/20 13:02:17;;;;;;;3.83;3.43;;;8.50;85.50;;;;;;4975121;28;20490;-73
2023/04/20 13:04:44;;;;;;;4.37;3.80;;;8.50;84.90;;;;;;4974915;28;20806;-74
2023/04/20 13:07:11;;;;;;;3.93;3.53;;;8.40;84.50;;;;;;4974828;28;20489;-74
2023/04/20 13:09:38;;;;;;;4.23;3.83;;;8.50;84.50;;;;;;4974651;28;20528;-74
2023/04/20 13:12:05;;;;;;;3.30;3.00;;;8.40;84.50;;;;;;4974674;28;20478;-73
2023/04/20 13:14:32;;;;;;;3.57;3.27;;;8.40;84.10;;;;;;4974523;28;21003;-75
2023/04/20 13:17:00;;;;;;;3.80;3.50;;;8.30;84.30;;;;;;4975017;28;20453;-75
2023/04/20 13:19:28;;;;;;;3.30;3.00;;;8.50;84.00;;;;;;4975228;28;20450;-76
2023/04/20 13:21:55;;;;;;;3.60;3.30;;;8.30;84.10;;;;;;4975353;28;20473;-74
2023/04/20 13:24:22;;;;;;;3.10;2.80;;;8.30;84.60;;;;;;4975319;28;20446;-76
2023/04/20 13:26:50;;;;;;;3.80;3.50;;;8.10;84.30;;;;;;4975138;28;20458;-76
2023/04/20 13:29:17;;;;;;;3.53;3.20;;;8.10;85.20;;;;;;4974612;28;20486;-74
2023/04/20 13:31:46;;;;;;;3.80;3.23;;;8.10;85.30;;;;;;4974786;28;20521;-75
2023/04/20 13:34:12;;;;;;;3.93;3.53;;;7.90;85.70;;;;;;4975167;28;20512;-75
2023/04/20 13:36:41;;;;;;;4.40;4.00;;;7.90;85.60;;;;;;4975409;28;20445;-75
2023/04/20 13:39:09;;;;;;;3.30;2.93;;;8.00;85.10;;;;;;4974772;28;20459;-74
2023/04/20 13:41:35;;;;;;;3.17;2.83;;;8.00;85.80;;;;;;4974831;28;20497;-75
2023/04/20 13:44:03;;;;;;;4.50;4.00;;;8.10;85.70;;;;;;4974779;28;20462;-76
2023/04/20 13:46:30;;;;;;;4.43;4.03;;;8.10;85.50;;;;;;4974845;28;20454;-75
2023/04/20 13:48:57;;;;;;;3.50;3.20;;;8.10;84.90;;;;;;4975027;28;20466;-76
2023/04/20 13:51:25;;;;;;;3.13;2.73;;;8.10;85.00;;;;;;4974880;28;20903;-75
2023/04/20 13:53:53;;;;;;;3.60;3.07;;;8.20;85.00;;;;;;4975010;28;20493;-75
2023/04/20 13:56:20;;;;;;;3.50;3.20;;;8.00;85.20;;;;;;4975101;28;20875;-76
2023/04/20 13:58:47;;;;;;;3.60;3.27;;;8.20;85.30;;;;;;4976805;28;20445;-75
2023/04/20 14:01:15;;;;;;;3.90;3.50;;;8.10;84.80;;;;;;4977491;28;20478;-76
2023/04/20 14:03:41;;;;;;;4.23;3.83;;;8.00;85.30;;;;;;4976195;28;20482;-76
2023/04/20 14:06:09;;;;;;;5.70;5.23;;;7.90;86.00;;;;;;4976405;28;20462;-76
2023/04/20 14:08:36;;;;;;;4.20;3.50;;;7.80;86.10;;;;;;4976560;28;20446;-76
2023/04/20 14:11:04;;;;;;;3.60;3.10;;;7.80;86.50;;;;;;4974717;28;20921;-76
2023/04/20 14:13:31;;;;;;;3.63;3.30;;;7.80;87.00;;;;;;4974036;28;20450;-76
2023/04/20 14:15:58;;;;;;;4.00;3.60;;;7.60;86.90;;;;;;4975843;28;20484;-76
2023/04/20 14:18:25;;;;;;;3.30;3.00;;;7.60;87.20;;;;;;4977286;28;21064;-76
2023/04/20 14:20:51;;;;;;;3.50;3.20;;;7.60;87.70;;;;;;4977057;28;20466;-76
2023/04/20 14:23:18;;;;;;;4.43;4.03;;;7.60;87.60;;;;;;4977120;28;20873;-76
2023/04/20 14:25:45;;;;;;;3.40;3.10;;;7.70;88.30;;;;;;4977354;28;20467;-74
2023/04/20 14:28:15;;;;;;;3.83;3.47;;;7.80;88.10;;;;;;4977309;28;20532;-76
2023/04/20 14:30:43;;;;;;;4.10;3.70;;;7.80;88.10;;;;;;4976858;28;21002;-76
2023/04/20 14:33:10;;;;;;;3.90;3.60;;;7.80;87.70;;;;;;4977205;28;20908;-76
2023/04/20 14:35:37;;;;;;;5.10;4.10;;;7.70;88.10;;;;;;4977227;28;20537;-76
2023/04/20 14:38:04;;;;;;;4.03;3.37;;;7.60;89.10;;;;;;4977155;28;20864;-76
2023/04/20 14:40:31;;;;;;;4.80;4.40;;;7.60;89.40;;;;;;4977067;28;20803;-76
2023/04/20 14:42:57;;;;;;;4.13;3.73;;;7.60;89.40;;;;;;4977009;28;20450;-75
2023/04/20 14:45:25;;;;;;;3.93;3.63;;;7.60;89.80;;;;;;4977039;28;20505;-75
2023/04/20 14:47:53;;;;;;;4.67;4.27;;;7.80;89.40;;;;;;4976649;28;20939;-75
2023/04/20 14:50:20;;;;;;;4.70;4.30;;;7.80;89.20;;;;;;4976905;28;20844;-76
2023/04/20 14:52:47;;;;;;;4.00;3.70;;;7.80;89.50;;;;;;4976928;28;20462;-76
2023/04/20 14:55:14;;;;;;;5.17;4.77;;;7.70;89.10;;;;;;4976830;28;20520;-76
2023/04/20 14:57:40;;;;;;;4.17;3.77;;;7.60;89.70;;;;;;4976923;28;20450;-75
2023/04/20 15:00:10;;;;;;;4.67;4.27;;;7.70;89.70;;;;;;4976783;28;20465;-75
2023/04/20 15:02:38;;;;;;;4.10;3.70;;;7.80;89.80;;;;;;4976182;28;20481;-75
2023/04/20 15:05:06;;;;;;;4.33;4.00;;;7.90;89.50;;;;;;4976308;28;20936;-75
2023/04/20 15:07:33;;;;;;;4.53;4.13;;;8.00;89.30;;;;;;4976647;28;20642;-75
2023/04/20 15:09:59;;;;;;;4.20;3.80;;;8.10;89.00;;;;;;4976641;28;20486;-75
2023/04/20 15:12:26;;;;;;;4.50;4.10;;;8.20;88.80;;;;;;4976658;28;20529;-75
2023/04/20 15:14:53;;;;;;;4.57;4.17;;;8.40;88.40;;;;;;4976238;28;20871;-74
2023/04/20 15:17:19;;;;;;;3.80;3.50;;;8.30;88.30;;;;;;4976517;28;20450;-74
2023/04/20 15:19:47;;;;;;;5.60;4.53;;;8.40;88.00;;;;;;4976354;28;20450;-73
2023/04/20 15:22:14;;;;;;;5.00;4.60;;;8.30;87.60;;;;;;4976305;28;20467;-73
2023/04/20 15:24:41;;;;;;;4.50;4.10;;;8.10;88.00;;;;;;4976368;28;20798;-74
2023/04/20 15:27:08;;;;;;;4.90;4.50;;;8.00;88.80;;;;;;4975881;28;20947;-75
2023/04/20 15:29:36;;;;;;;5.27;4.77;;;8.00;88.90;;;;;;4976586;28;20454;-74
2023/04/20 15:32:03;;;;;;;4.87;4.47;;;8.00;89.60;;;;;;4976485;28;20516;-74
2023/04/20 15:34:30;;;;;;;4.67;4.27;;;8.00;89.20;;;;;;4976290;28;20966;-75
2023/04/20 15:36:58;;;;;;;5.10;4.70;;;7.90;89.50;;;;;;4976524;28;20450;-74
2023/04/20 15:39:24;;;;;;;5.37;4.87;;;7.90;89.50;;;;;;4976306;28;20450;-74
2023/04/20 15:41:51;;;;;;;5.47;4.97;;;7.80;90.00;;;;;;4976319;28;20473;-75
2023/04/20 15:44:18;;;;;;;5.63;5.17;;;7.70;90.10;;;;;;4976290;28;20516;-74
2023/04/20 15:46:45;;;;;;;5.70;5.20;;;7.60;90.70;;;;;;4976212;28;20496;-74
2023/04/20 15:49:11;;;;;;;4.93;4.43;;;7.70;91.00;;;;;;4976070;28;20454;-74
2023/04/20 15:51:38;;;;;;;6.43;5.83;;;7.60;91.10;;;;;;4976617;28;20541;-74
2023/04/20 15:54:06;;;;;;;6.03;5.53;;;7.60;91.60;;;;;;4978441;28;20450;-75
2023/04/20 15:56:33;;;;;;;6.03;5.50;;;7.50;91.40;;;;;;4980656;28;20485;-74
2023/04/20 15:58:59;;;;;;;5.50;5.00;;;7.40;91.40;;;;;;4977493;28;20451;-75
2023/04/20 16:01:26;;;;;;;5.70;5.20;;;7.40;91.60;;;;;;4979136;28;20486;-74
2023/04/20 16:03:53;;;;;;;5.90;5.40;;;7.40;91.70;;;;;;4978099;28;20973;-75
2023/04/20 16:06:20;;;;;;;5.27;4.87;;;7.40;91.70;;;;;;4978354;28;20545;-75
2023/04/20 16:08:52;;;;;;;4.97;4.57;;;7.30;91.90;;;;;;4978077;28;20454;-75
2023/04/20 16:11:20;;;;;;;5.20;4.70;;;7.40;91.50;;;;;;4977781;28;21021;-76
2023/04/20 16:13:47;;;;;;;5.47;4.53;;;7.50;91.40;;;;;;4979885;28;20454;-76
2023/04/20 16:16:14;;;;;;;6.30;5.80;;;7.60;90.90;;;;;;4978351;28;20461;-77
2023/04/20 16:18:40;;;;;;;4.47;4.07;;;7.60;90.50;;;;;;4979320;28;20463;-76
2023/04/20 16:21:07;;;;;;;4.40;4.00;;;7.80;90.90;;;;;;4977386;28;21003;-76
2023/04/20 16:23:34;;;;;;;4.77;4.37;;;8.10;89.80;;;;;;4978119;28;20457;-76
2023/04/20 16:26:01;;;;;;;4.57;4.17;;;8.20;88.10;;;;;;4977355;28;20859;-75
2023/04/20 16:28:29;;;;;;;4.50;4.10;;;8.40;88.40;;;;;;4977323;28;20524;-75
2023/04/20 16:30:55;;;;;;;4.67;4.27;;;8.50;87.40;;;;;;4975460;28;20490;-75
2023/04/20 16:33:22;;;;;;;4.70;4.30;;;8.60;87.00;;;;;;4975326;28;20509;-75
2023/04/20 16:35:49;;;;;;;4.60;4.20;;;8.70;86.00;;;;;;4975165;28;20463;-75
2023/04/20 16:38:15;;;;;;;4.10;3.80;;;8.70;85.40;;;;;;4976350;28;20450;-75
2023/04/20 16:40:42;;;;;;;5.17;4.73;;;8.90;84.90;;;;;;4978590;28;20463;-75
2023/04/20 16:43:09;;;;;;;4.07;3.73;;;8.80;84.90;;;;;;4992805;28;20498;-76
2023/04/20 16:45:37;;;;;;;4.47;4.07;;;8.90;84.80;;;;;;4996521;28;20447;-75
2023/04/20 16:48:04;;;;;;;5.43;4.90;;;9.10;84.20;;;;;;4976716;28;20450;-75
2023/04/20 16:50:31;;;;;;;7.70;6.20;;;9.30;83.70;;;;;;4975517;28;21082;-75
2023/04/20 16:52:58;;;;;;;6.87;6.33;;;9.40;83.60;;;;;;4976486;28;20453;-75
2023/04/20 16:55:25;;;;;;;5.00;4.60;;;9.50;83.00;;;;;;4976751;28;20458;-75
2023/04/20 16:57:58;;;;;;;5.03;4.63;;;9.50;82.60;;;;;;4978127;28;20458;-75